Bloomington, Illinois
Current Conditions -  °F | °C
As of 2:56 PM on Wednesday 26 Nov 2014 (Local Time) from KBMI Reporting Station
Overcast Overcast  
Wind Chill: 19°   Ceiling: 900
Heat Index: 28°   Visibility: 7mi
Dew Point: 25°   Wind: 10mph
Humidity: 89%   Direction: 90°E
Pressure: 30.07"   Gusts: NA
Location:  40.49°N, 89°W
Report Text: KBMI 262056Z 09009KT 7SM OVC009 M02/M04 A3007 RMK AO2 55002 T10221038 SLP203
Loading
Personal Weather Stations






























Interactive Weather Map New forecast layout! Learn more

10-Day Weather Forecast

Advertisements
Track Severe Weather on mobile